Time;durP1;ratioP1;P1;durP2;ratioP2;P2;SDS_P1;SDS_P2;PMS_P1;PMS_P2;Temp;Humidity;BMP_temperature;BMP_pressure;BME280_temperature;BME280_humidity;BME280_pressure;Samples;Min_cycle;Max_cycle;Signal;HPM_P1;HPM_P2
2021/12/15 00:01:19;;;;;;;43.53;20.33;;;9.50;99.90;;;;;;5080456;28;20040;-58
2021/12/15 00:03:45;;;;;;;41.45;19.38;;;9.50;99.90;;;;;;5080545;28;20082;-60
2021/12/15 00:06:16;;;;;;;41.95;19.88;;;9.50;99.90;;;;;;5081135;28;20067;-57
2021/12/15 00:08:44;;;;;;;43.90;20.58;;;9.50;99.90;;;;;;5078684;28;20052;-58
2021/12/15 00:11:11;;;;;;;49.67;21.38;;;9.60;99.90;;;;;;5080702;28;20044;-58
2021/12/15 00:13:38;;;;;;;47.90;19.17;;;9.50;99.90;;;;;;5079639;28;20110;-57
2021/12/15 00:16:06;;;;;;;45.95;20.08;;;9.50;99.90;;;;;;5080499;28;20040;-58
2021/12/15 00:18:33;;;;;;;47.35;21.70;;;9.50;99.90;;;;;;5080104;28;20044;-58
2021/12/15 00:21:00;;;;;;;43.60;20.10;;;9.50;99.90;;;;;;5080071;28;20049;-58
2021/12/15 00:23:27;;;;;;;48.47;19.67;;;9.50;99.90;;;;;;5080556;28;20072;-58
2021/12/15 00:25:53;;;;;;;40.47;19.23;;;9.50;99.90;;;;;;5078709;28;20041;-58
2021/12/15 00:28:19;;;;;;;51.58;22.75;;;9.50;99.90;;;;;;5079365;28;20063;-57
2021/12/15 00:30:45;;;;;;;45.45;21.85;;;9.60;99.90;;;;;;5080026;28;20044;-58
2021/12/15 00:33:11;;;;;;;44.72;20.58;;;9.50;99.90;;;;;;5080658;28;20050;-58
2021/12/15 00:35:37;;;;;;;50.38;22.55;;;9.60;99.90;;;;;;5080296;28;20452;-58
2021/12/15 00:38:05;;;;;;;48.17;20.60;;;9.60;99.90;;;;;;5080098;28;20044;-58
2021/12/15 00:40:31;;;;;;;44.88;22.73;;;9.60;99.90;;;;;;5080349;28;20557;-57
2021/12/15 00:42:58;;;;;;;46.95;22.50;;;9.60;99.90;;;;;;5079664;28;20046;-58
2021/12/15 00:45:25;;;;;;;46.45;22.27;;;9.40;99.90;;;;;;5079507;28;20475;-58
2021/12/15 00:47:51;;;;;;;47.33;20.88;;;9.60;99.90;;;;;;5079711;28;20044;-58
2021/12/15 00:50:20;;;;;;;51.75;22.42;;;9.60;99.90;;;;;;5080113;28;20137;-58
2021/12/15 00:52:47;;;;;;;47.00;21.15;;;9.60;99.90;;;;;;5100149;28;20063;-58
2021/12/15 00:55:25;;;;;;;42.75;20.48;;;9.60;99.90;;;;;;5098857;28;20048;-58
2021/12/15 00:57:51;;;;;;;43.78;20.15;;;9.60;99.90;;;;;;5100363;28;20431;-58
2021/12/15 01:00:51;;;;;;;49.17;21.77;;;9.60;99.90;;;;;;5098229;28;20039;-58
2021/12/15 01:03:17;;;;;;;39.47;19.13;;;9.60;99.90;;;;;;5088728;28;20052;-58
2021/12/15 01:05:47;;;;;;;47.08;20.73;;;9.60;99.90;;;;;;5100036;28;20048;-57
2021/12/15 01:08:18;;;;;;;41.67;20.13;;;9.60;99.90;;;;;;5099742;28;20048;-57
2021/12/15 01:21:49;;;;;;;45.50;19.42;;;9.60;99.90;;;;;;5099216;28;20048;-58
2021/12/15 01:24:16;;;;;;;46.83;19.90;;;9.60;99.90;;;;;;5099687;28;20044;-57
2021/12/15 01:26:42;;;;;;;43.40;20.10;;;9.60;99.90;;;;;;5080886;28;20063;-58
2021/12/15 01:29:08;;;;;;;43.15;19.42;;;9.60;99.90;;;;;;5099288;28;20051;-58
2021/12/15 01:31:34;;;;;;;45.33;20.73;;;9.70;99.90;;;;;;5099276;28;20040;-58
2021/12/15 01:34:00;;;;;;;43.55;20.75;;;9.60;99.90;;;;;;5099205;28;20063;-58
2021/12/15 01:36:26;;;;;;;41.70;20.58;;;9.70;99.90;;;;;;5098270;28;20419;-58
2021/12/15 01:38:52;;;;;;;45.60;19.73;;;9.60;99.90;;;;;;5097894;28;20585;-58
2021/12/15 01:41:22;;;;;;;45.05;21.33;;;9.60;99.90;;;;;;5099269;28;20048;-58
2021/12/15 01:49:40;;;;;;;44.40;21.90;;;9.60;99.90;;;;;;5099829;28;20396;-58
2021/12/15 01:52:09;;;;;;;53.15;23.05;;;9.60;99.90;;;;;;5082184;28;20048;-58
2021/12/15 01:54:37;;;;;;;44.72;22.38;;;9.70;99.90;;;;;;5078540;28;20468;-58
2021/12/15 01:57:05;;;;;;;46.75;22.35;;;9.60;99.90;;;;;;5078590;28;20135;-58
2021/12/15 01:59:31;;;;;;;52.33;23.05;;;9.60;99.90;;;;;;5078696;28;20060;-58
2021/12/15 02:01:58;;;;;;;50.65;23.73;;;9.60;99.90;;;;;;5079018;28;20044;-57
2021/12/15 02:04:24;;;;;;;55.00;24.25;;;9.60;99.90;;;;;;5078445;28;20056;-58
2021/12/15 02:06:50;;;;;;;51.30;24.13;;;9.60;99.90;;;;;;5078580;28;20040;-58
2021/12/15 02:09:38;;;;;;;55.67;24.63;;;9.60;99.90;;;;;;5077336;28;20052;-60
2021/12/15 02:12:05;;;;;;;49.65;23.70;;;9.60;99.90;;;;;;5078652;28;20048;-58
2021/12/15 02:14:33;;;;;;;53.97;24.42;;;9.60;99.90;;;;;;5077223;28;20044;-61
2021/12/15 02:16:59;;;;;;;54.28;26.90;;;9.60;99.90;;;;;;5078543;28;20048;-59
2021/12/15 02:19:25;;;;;;;52.45;24.42;;;9.60;99.90;;;;;;5078858;28;20040;-58
2021/12/15 02:21:52;;;;;;;53.97;24.00;;;9.70;99.90;;;;;;5078139;28;20416;-58
2021/12/15 02:24:19;;;;;;;55.20;24.55;;;9.70;99.90;;;;;;5078545;28;20049;-58
2021/12/15 02:26:49;;;;;;;59.13;25.05;;;9.60;99.90;;;;;;5078164;28;20070;-59
2021/12/15 02:29:18;;;;;;;50.25;24.40;;;9.70;99.90;;;;;;5078379;28;20044;-58
2021/12/15 02:39:38;;;;;;;56.30;23.92;;;9.70;99.90;;;;;;5077828;28;20133;-58
2021/12/15 02:42:05;;;;;;;51.92;25.10;;;9.60;99.90;;;;;;5076839;28;20040;-58
2021/12/15 02:44:31;;;;;;;53.42;25.60;;;9.60;99.90;;;;;;5078367;28;20051;-58
2021/12/15 02:46:57;;;;;;;52.85;25.65;;;9.60;99.90;;;;;;5076652;28;20115;-58
2021/12/15 02:49:27;;;;;;;57.20;25.63;;;9.60;99.90;;;;;;5078440;28;20561;-58
2021/12/15 02:51:56;;;;;;;52.92;24.42;;;9.70;99.90;;;;;;5090903;28;20044;-58
2021/12/15 02:54:23;;;;;;;52.75;25.08;;;9.60;99.90;;;;;;5098136;28;20052;-58
2021/12/15 02:56:52;;;;;;;55.75;25.80;;;9.60;99.90;;;;;;5097888;28;20069;-57
2021/12/15 02:59:30;;;;;;;53.30;25.65;;;9.60;99.90;;;;;;5098319;28;20044;-58
2021/12/15 03:02:07;;;;;;;52.92;25.48;;;9.70;99.90;;;;;;5098892;28;20048;-58
2021/12/15 03:07:16;;;;;;;50.03;24.70;;;9.60;99.90;;;;;;5096753;28;20547;-57
2021/12/15 03:17:57;;;;;;;54.03;25.70;;;9.70;99.90;;;;;;5097479;28;20058;-57
2021/12/15 03:20:23;;;;;;;57.90;26.08;;;9.70;99.90;;;;;;5100204;28;20051;-58
2021/12/15 03:22:50;;;;;;;54.15;25.70;;;9.60;99.90;;;;;;5101956;28;20079;-58
2021/12/15 03:25:17;;;;;;;55.88;26.50;;;9.60;99.90;;;;;;5101754;28;20481;-58
2021/12/15 03:36:11;;;;;;;53.38;26.77;;;9.70;99.90;;;;;;5101696;28;20044;-58
2021/12/15 03:38:38;;;;;;;56.03;25.90;;;9.60;99.90;;;;;;5101283;28;20032;-58
2021/12/15 03:41:07;;;;;;;54.05;27.48;;;9.70;99.90;;;;;;5101593;28;20478;-58
2021/12/15 03:43:36;;;;;;;50.45;24.98;;;9.60;99.90;;;;;;5100796;28;20074;-58
2021/12/15 03:46:10;;;;;;;58.42;26.48;;;9.70;99.90;;;;;;5101623;28;20075;-58
2021/12/15 03:48:38;;;;;;;53.05;25.80;;;9.60;99.90;;;;;;5100093;28;20055;-58
2021/12/15 03:51:05;;;;;;;52.08;25.65;;;9.60;99.90;;;;;;5093068;28;20472;-58
2021/12/15 03:53:32;;;;;;;56.38;26.02;;;9.70;99.90;;;;;;5079909;28;20083;-58
2021/12/15 03:55:59;;;;;;;54.35;26.38;;;9.70;99.90;;;;;;5078808;28;20049;-58
2021/12/15 03:58:26;;;;;;;50.47;25.88;;;9.70;99.90;;;;;;5079408;28;20044;-58
2021/12/15 04:01:14;;;;;;;52.58;26.13;;;9.70;99.90;;;;;;5080023;28;20136;-57
2021/12/15 04:03:43;;;;;;;52.60;27.88;;;9.60;99.90;;;;;;5080407;28;20048;-58
2021/12/15 04:06:14;;;;;;;53.28;25.27;;;9.70;99.90;;;;;;5080725;28;20034;-57
2021/12/15 04:08:42;;;;;;;58.75;26.60;;;9.70;99.90;;;;;;5080021;28;20104;-57
2021/12/15 04:11:17;;;;;;;51.47;25.85;;;9.70;99.90;;;;;;5080830;28;20455;-58
2021/12/15 04:13:46;;;;;;;54.42;25.48;;;9.60;99.90;;;;;;5079843;28;20055;-58
2021/12/15 04:16:27;;;;;;;48.45;24.70;;;9.70;99.90;;;;;;5080799;28;20049;-58
2021/12/15 04:18:52;;;;;;;48.70;24.45;;;9.70;99.90;;;;;;5080918;28;20041;-57
2021/12/15 04:21:18;;;;;;;49.83;25.52;;;9.70;99.90;;;;;;5080145;28;20186;-57
2021/12/15 04:23:54;;;;;;;51.28;25.15;;;9.70;99.90;;;;;;5080627;28;20052;-58
2021/12/15 04:26:20;;;;;;;52.50;25.08;;;9.70;99.90;;;;;;5079885;28;20807;-57
2021/12/15 04:28:46;;;;;;;50.30;24.88;;;9.70;99.90;;;;;;5080382;28;20078;-58
2021/12/15 04:31:16;;;;;;;51.50;25.35;;;9.70;99.90;;;;;;5060837;28;20520;-58
2021/12/15 04:33:55;;;;;;;46.10;23.70;;;9.70;99.90;;;;;;5078907;28;20053;-58
2021/12/15 04:36:27;;;;;;;51.15;24.45;;;9.70;99.90;;;;;;5062313;28;20036;-58
2021/12/15 04:38:56;;;;;;;44.15;23.50;;;9.70;99.90;;;;;;5079709;28;20178;-58
2021/12/15 04:41:22;;;;;;;51.53;24.08;;;9.70;99.90;;;;;;5078603;28;20050;-58
2021/12/15 04:43:57;;;;;;;45.97;24.15;;;9.70;99.90;;;;;;5077568;28;20104;-58
2021/12/15 04:46:26;;;;;;;47.65;24.27;;;9.70;99.90;;;;;;5061719;28;20049;-59
2021/12/15 04:48:55;;;;;;;45.05;23.38;;;9.70;99.90;;;;;;5080048;28;20047;-58
2021/12/15 04:51:21;;;;;;;49.72;24.10;;;9.80;99.90;;;;;;5089844;28;20048;-59
2021/12/15 04:53:48;;;;;;;47.05;23.38;;;9.70;99.90;;;;;;5098760;28;20060;-59
2021/12/15 04:56:15;;;;;;;47.33;23.55;;;9.70;99.90;;;;;;5099382;28;20085;-60
2021/12/15 04:58:41;;;;;;;45.65;22.35;;;9.70;99.90;;;;;;5098554;28;20039;-59
2021/12/15 05:01:10;;;;;;;50.55;23.88;;;9.70;99.90;;;;;;5099386;28;20104;-57
2021/12/15 05:03:38;;;;;;;45.65;23.05;;;9.70;99.90;;;;;;5099760;28;20481;-60
2021/12/15 05:06:05;;;;;;;49.85;24.17;;;9.70;99.90;;;;;;5098618;28;20908;-58
2021/12/15 05:08:31;;;;;;;48.25;22.83;;;9.70;99.90;;;;;;5098039;28;20044;-59
2021/12/15 05:10:59;;;;;;;51.58;23.38;;;9.70;99.90;;;;;;5099680;28;20048;-59
2021/12/15 05:13:25;;;;;;;47.72;23.45;;;9.70;99.90;;;;;;5098912;28;20043;-58
2021/12/15 05:15:51;;;;;;;47.15;23.13;;;9.70;99.90;;;;;;5081262;28;20094;-59
2021/12/15 05:18:16;;;;;;;51.22;23.23;;;9.70;99.90;;;;;;5097354;28;20528;-58
2021/12/15 05:20:47;;;;;;;51.38;23.88;;;9.70;99.90;;;;;;5099281;28;20040;-60
2021/12/15 05:23:15;;;;;;;45.33;24.55;;;9.70;99.90;;;;;;5099720;28;20052;-59
2021/12/15 05:25:41;;;;;;;46.00;23.23;;;9.60;99.90;;;;;;5097694;28;20096;-58
2021/12/15 05:28:07;;;;;;;48.95;24.88;;;9.70;99.90;;;;;;5097919;28;20040;-59
2021/12/15 05:30:34;;;;;;;49.50;24.73;;;9.70;99.90;;;;;;5098890;28;20066;-59
2021/12/15 05:33:00;;;;;;;47.50;24.98;;;9.70;99.90;;;;;;5099247;28;20036;-59
2021/12/15 05:35:27;;;;;;;45.83;23.65;;;9.70;99.90;;;;;;5097538;28;20056;-59
2021/12/15 05:37:58;;;;;;;45.20;22.60;;;9.70;99.90;;;;;;5097845;28;20048;-59
2021/12/15 05:40:27;;;;;;;46.13;23.25;;;9.60;99.90;;;;;;5099322;28;20059;-59
2021/12/15 05:42:56;;;;;;;52.15;25.23;;;9.60;99.90;;;;;;5096928;28;20047;-58
2021/12/15 05:45:30;;;;;;;50.90;24.67;;;9.70;99.90;;;;;;5099020;28;20093;-58
2021/12/15 05:47:57;;;;;;;49.85;24.73;;;9.70;99.90;;;;;;5098346;28;20094;-58
2021/12/15 05:50:28;;;;;;;53.92;24.27;;;9.60;99.90;;;;;;5096299;28;20032;-59
2021/12/15 05:52:54;;;;;;;48.45;23.20;;;9.70;99.90;;;;;;5077125;28;20496;-58
2021/12/15 05:55:21;;;;;;;52.08;23.98;;;9.60;99.90;;;;;;5078255;28;20045;-58
2021/12/15 05:57:47;;;;;;;52.88;23.65;;;9.60;99.90;;;;;;5078844;28;20115;-58
2021/12/15 06:00:17;;;;;;;51.63;24.95;;;9.60;99.90;;;;;;5077889;28;20052;-58
2021/12/15 06:02:44;;;;;;;51.42;23.85;;;9.70;99.90;;;;;;5077278;28;20078;-59
2021/12/15 06:05:10;;;;;;;54.33;22.98;;;9.60;99.90;;;;;;5077479;28;20516;-58
2021/12/15 06:07:38;;;;;;;50.53;23.55;;;9.70;99.90;;;;;;5078301;28;20058;-59
2021/12/15 06:10:07;;;;;;;51.53;24.52;;;9.70;99.90;;;;;;5078406;28;20052;-58
2021/12/15 06:12:33;;;;;;;48.13;25.45;;;9.70;99.90;;;;;;5077876;28;20801;-58
2021/12/15 06:14:58;;;;;;;49.42;23.48;;;9.70;99.90;;;;;;5078688;28;20130;-59
2021/12/15 06:17:26;;;;;;;50.80;23.77;;;9.60;99.90;;;;;;5076433;28;20067;-58
2021/12/15 06:19:56;;;;;;;47.42;24.20;;;9.60;99.90;;;;;;5078095;28;20492;-58
2021/12/15 06:22:28;;;;;;;47.40;24.00;;;9.70;99.90;;;;;;5077876;28;20041;-58
2021/12/15 06:24:56;;;;;;;50.47;24.75;;;9.60;99.90;;;;;;5076847;28;20107;-58
2021/12/15 06:27:23;;;;;;;49.40;24.90;;;9.70;99.90;;;;;;5078332;28;20574;-58
2021/12/15 06:29:52;;;;;;;50.42;24.25;;;9.60;99.90;;;;;;5077779;28;20036;-58
2021/12/15 06:32:19;;;;;;;49.10;24.63;;;9.70;99.90;;;;;;5078279;28;20562;-58
2021/12/15 06:34:45;;;;;;;53.53;27.42;;;9.70;99.90;;;;;;5077694;28;20044;-58
2021/12/15 06:37:12;;;;;;;49.60;24.98;;;9.70;99.90;;;;;;5078146;28;20124;-58
2021/12/15 06:39:38;;;;;;;50.30;24.63;;;9.70;99.90;;;;;;5077745;28;20055;-58
2021/12/15 06:42:05;;;;;;;54.20;24.05;;;9.70;99.90;;;;;;5076860;28;20123;-58
2021/12/15 06:44:30;;;;;;;49.05;24.42;;;9.70;99.90;;;;;;5078095;28;20044;-58
2021/12/15 07:00:40;;;;;;;46.95;22.23;;;9.70;99.90;;;;;;5101844;28;20083;-59
2021/12/15 07:03:07;;;;;;;47.97;23.80;;;9.60;99.90;;;;;;5102192;28;20048;-58
2021/12/15 07:05:33;;;;;;;46.90;22.63;;;9.70;99.90;;;;;;5100196;28;20044;-58
2021/12/15 07:08:02;;;;;;;47.72;22.38;;;9.70;99.90;;;;;;5100419;28;20079;-58
2021/12/15 07:10:30;;;;;;;46.75;22.15;;;9.70;99.90;;;;;;5102263;28;20052;-58
2021/12/15 07:12:57;;;;;;;47.08;22.77;;;9.70;99.90;;;;;;5099728;28;20124;-58
2021/12/15 07:15:24;;;;;;;42.53;21.35;;;9.70;99.90;;;;;;5100561;28;20047;-58
2021/12/15 07:17:53;;;;;;;47.35;21.75;;;9.70;99.90;;;;;;5099692;28;20044;-58
2021/12/15 07:20:36;;;;;;;46.67;22.85;;;9.70;99.90;;;;;;5101541;28;20055;-58
2021/12/15 07:23:14;;;;;;;42.50;21.65;;;9.70;99.90;;;;;;5101981;28;20209;-58
2021/12/15 07:25:43;;;;;;;42.50;22.48;;;9.70;99.90;;;;;;5100893;28;20073;-58
2021/12/15 07:28:09;;;;;;;39.20;21.00;;;9.70;99.90;;;;;;5101823;28;20044;-58
2021/12/15 07:30:37;;;;;;;43.17;21.20;;;9.70;99.90;;;;;;5100961;28;20051;-59
2021/12/15 07:33:04;;;;;;;42.50;20.75;;;9.70;99.90;;;;;;5101630;28;20044;-58
2021/12/15 07:35:31;;;;;;;42.65;20.52;;;9.70;99.90;;;;;;5101435;28;20036;-58
2021/12/15 07:37:56;;;;;;;45.20;20.50;;;9.60;99.90;;;;;;5099947;28;20051;-58
2021/12/15 07:40:24;;;;;;;42.75;19.83;;;9.70;99.90;;;;;;5101771;28;20047;-58
2021/12/15 07:43:08;;;;;;;36.28;17.90;;;9.60;99.90;;;;;;5100576;28;20040;-58
2021/12/15 07:45:49;;;;;;;39.90;18.08;;;9.70;99.90;;;;;;5101441;28;20094;-58
2021/12/15 07:48:16;;;;;;;36.90;18.25;;;9.60;99.90;;;;;;5101031;28;20040;-58
2021/12/15 07:50:45;;;;;;;40.80;19.55;;;9.60;99.90;;;;;;5096044;28;20120;-58
2021/12/15 07:53:12;;;;;;;41.53;18.58;;;9.60;99.90;;;;;;5081005;28;20068;-58
2021/12/15 07:55:39;;;;;;;39.83;18.10;;;9.70;99.90;;;;;;5078820;28;20053;-58
2021/12/15 07:58:06;;;;;;;35.22;18.33;;;9.70;99.90;;;;;;5081123;28;20954;-58
2021/12/15 08:00:33;;;;;;;33.60;16.92;;;9.60;99.90;;;;;;5080346;28;20731;-59
2021/12/15 08:02:59;;;;;;;34.35;16.95;;;9.60;99.90;;;;;;5080760;28;20076;-58
2021/12/15 08:05:28;;;;;;;32.67;16.52;;;9.60;99.90;;;;;;5080020;28;20059;-58
2021/12/15 08:07:54;;;;;;;32.30;14.10;;;9.60;99.90;;;;;;5079794;28;20040;-60
2021/12/15 08:10:21;;;;;;;29.42;14.68;;;9.50;99.90;;;;;;5081290;28;20063;-58
2021/12/15 08:12:47;;;;;;;34.70;15.55;;;9.60;99.90;;;;;;5080703;28;20055;-58
2021/12/15 08:15:16;;;;;;;31.38;15.48;;;9.60;99.90;;;;;;5081252;28;20045;-58
2021/12/15 08:17:42;;;;;;;31.15;16.88;;;9.60;99.90;;;;;;5080410;28;20043;-59
2021/12/15 08:20:11;;;;;;;29.25;15.27;;;9.60;99.90;;;;;;5079321;28;20040;-59
2021/12/15 08:22:38;;;;;;;32.55;15.30;;;9.50;99.90;;;;;;5080683;28;20055;-58
2021/12/15 08:25:08;;;;;;;27.88;13.48;;;9.50;99.90;;;;;;5080555;28;20514;-59
2021/12/15 08:27:35;;;;;;;27.75;14.02;;;9.50;99.90;;;;;;5079678;28;20040;-59
2021/12/15 08:30:02;;;;;;;30.42;15.10;;;9.50;99.90;;;;;;5080126;28;20096;-58
2021/12/15 08:32:28;;;;;;;25.70;13.10;;;9.40;99.90;;;;;;5079073;28;20045;-58
2021/12/15 08:34:54;;;;;;;30.23;13.10;;;9.40;99.90;;;;;;5079713;28;20052;-59
2021/12/15 08:37:20;;;;;;;28.35;13.30;;;9.50;99.90;;;;;;5080515;28;20074;-59
2021/12/15 08:39:46;;;;;;;31.92;12.45;;;9.40;99.90;;;;;;5080564;28;20100;-59
2021/12/15 08:42:12;;;;;;;29.20;12.65;;;9.40;99.90;;;;;;5080030;28;20051;-58
2021/12/15 08:44:39;;;;;;;31.15;13.48;;;9.50;99.90;;;;;;5080568;28;20041;-59
2021/12/15 08:47:06;;;;;;;27.80;13.32;;;9.50;99.90;;;;;;5080027;28;20068;-59
2021/12/15 08:49:34;;;;;;;34.83;13.55;;;9.50;99.90;;;;;;5080203;28;20471;-59
2021/12/15 08:52:00;;;;;;;28.92;13.98;;;9.50;99.90;;;;;;5093871;28;20047;-59
2021/12/15 08:54:26;;;;;;;31.13;13.82;;;9.60;99.90;;;;;;5100064;28;20131;-59
2021/12/15 08:56:52;;;;;;;31.33;13.75;;;9.60;99.90;;;;;;5100109;28;20052;-59
2021/12/15 08:59:19;;;;;;;32.55;14.27;;;9.60;99.90;;;;;;5100088;28;20527;-59
2021/12/15 09:01:46;;;;;;;26.83;13.15;;;9.60;99.90;;;;;;5100614;28;20062;-59
2021/12/15 09:04:14;;;;;;;32.30;15.90;;;9.60;99.90;;;;;;5099885;28;20048;-58
2021/12/15 09:06:42;;;;;;;35.58;14.13;;;9.60;99.90;;;;;;5098910;28;20036;-58
2021/12/15 09:09:12;;;;;;;34.15;14.38;;;9.60;99.90;;;;;;5099646;28;20051;-59
2021/12/15 09:11:38;;;;;;;30.20;14.38;;;9.60;99.90;;;;;;5099762;28;20044;-58
2021/12/15 09:14:06;;;;;;;28.85;14.07;;;9.70;99.90;;;;;;5099679;28;20075;-58
2021/12/15 09:16:35;;;;;;;28.38;13.65;;;9.70;99.90;;;;;;5098236;28;20040;-59
2021/12/15 09:19:04;;;;;;;23.10;12.45;;;9.80;99.90;;;;;;5099783;28;20047;-59
2021/12/15 09:21:31;;;;;;;33.25;13.98;;;9.80;99.90;;;;;;5099348;28;20071;-59
2021/12/15 09:23:59;;;;;;;28.92;13.70;;;9.80;99.90;;;;;;5099865;28;20423;-59
2021/12/15 09:26:26;;;;;;;30.17;13.95;;;9.80;99.90;;;;;;5099423;28;20059;-59
2021/12/15 09:28:52;;;;;;;27.20;12.68;;;9.80;99.90;;;;;;5098239;28;20040;-59
2021/12/15 09:31:18;;;;;;;28.67;13.90;;;9.80;99.90;;;;;;5099620;28;20109;-58
2021/12/15 09:33:49;;;;;;;31.45;14.75;;;9.80;99.90;;;;;;5099313;28;20083;-59
2021/12/15 09:36:17;;;;;;;24.52;11.68;;;9.90;99.90;;;;;;5100023;28;20099;-59
2021/12/15 09:38:47;;;;;;;25.05;12.52;;;9.90;99.90;;;;;;5099150;28;20044;-58
2021/12/15 09:41:15;;;;;;;27.98;12.73;;;9.90;99.90;;;;;;5098086;28;20055;-58
2021/12/15 09:43:42;;;;;;;23.90;12.32;;;9.90;99.90;;;;;;5080490;28;20144;-58
2021/12/15 10:02:33;;;;;;;20.75;10.55;;;9.90;99.90;;;;;;5078985;28;20056;-59
2021/12/15 10:05:14;;;;;;;19.92;9.82;;;10.00;99.90;;;;;;5078382;28;20037;-58
2021/12/15 10:20:53;;;;;;;13.00;6.75;;;10.00;99.90;;;;;;5078156;28;20052;-59
2021/12/15 10:23:31;;;;;;;16.98;6.32;;;10.00;99.90;;;;;;5078631;28;20044;-58
2021/12/15 10:25:57;;;;;;;19.00;6.00;;;10.10;99.90;;;;;;5078211;28;20552;-58
2021/12/15 10:28:30;;;;;;;12.80;5.63;;;10.10;99.90;;;;;;5077960;28;20051;-58
2021/12/15 10:31:02;;;;;;;13.85;6.18;;;10.10;99.90;;;;;;5076352;28;20052;-58
2021/12/15 10:33:33;;;;;;;14.80;5.95;;;10.10;99.90;;;;;;5078113;28;20085;-59
2021/12/15 10:36:03;;;;;;;12.00;5.75;;;10.10;99.90;;;;;;5078636;28;20040;-58
2021/12/15 10:38:40;;;;;;;14.13;6.65;;;10.10;99.90;;;;;;5078054;28;20392;-58
2021/12/15 10:41:12;;;;;;;13.32;6.15;;;10.20;99.90;;;;;;5078254;28;20056;-58
2021/12/15 10:43:41;;;;;;;15.65;6.22;;;10.10;99.90;;;;;;5077613;28;20046;-57
2021/12/15 10:46:17;;;;;;;14.13;5.82;;;10.20;99.90;;;;;;5078322;28;20064;-58
2021/12/15 10:48:52;;;;;;;19.13;6.57;;;10.20;99.90;;;;;;5078675;28;20075;-58
2021/12/15 10:51:21;;;;;;;11.00;5.30;;;10.20;99.90;;;;;;5088139;28;20040;-58
2021/12/15 10:53:47;;;;;;;14.48;6.97;;;10.20;99.90;;;;;;5098408;28;20405;-58
2021/12/15 10:56:16;;;;;;;16.38;6.60;;;10.20;99.90;;;;;;5098020;28;20111;-59
2021/12/15 10:58:46;;;;;;;18.33;6.45;;;10.30;99.90;;;;;;5098222;28;20044;-58
2021/12/15 11:01:48;;;;;;;16.10;6.65;;;10.30;99.90;;;;;;5098220;28;20097;-58
2021/12/15 11:04:22;;;;;;;15.80;5.93;;;10.30;99.90;;;;;;5096266;28;20048;-58
2021/12/15 11:07:31;;;;;;;13.65;6.25;;;10.30;99.90;;;;;;5098295;28;20046;-58
2021/12/15 11:10:10;;;;;;;14.32;6.05;;;10.40;99.90;;;;;;5058791;28;20052;-59
2021/12/15 11:12:38;;;;;;;16.27;6.07;;;10.40;99.90;;;;;;5097667;28;20442;-60
2021/12/15 11:15:23;;;;;;;13.60;6.75;;;10.40;99.90;;;;;;5098246;28;20040;-57
2021/12/15 11:17:57;;;;;;;18.27;6.53;;;10.40;99.90;;;;;;5095943;28;20055;-58
2021/12/15 11:20:27;;;;;;;17.35;7.15;;;10.30;99.90;;;;;;5097826;28;20119;-59
2021/12/15 11:23:05;;;;;;;17.35;5.97;;;10.40;99.90;;;;;;5098099;28;20102;-59
2021/12/15 11:25:50;;;;;;;13.90;6.40;;;10.40;99.90;;;;;;5097704;28;20054;-58
2021/12/15 11:28:23;;;;;;;14.82;6.00;;;10.30;99.90;;;;;;5098427;28;20423;-58
2021/12/15 11:30:56;;;;;;;11.57;5.85;;;10.40;99.90;;;;;;5097595;28;20550;-58
2021/12/15 11:33:32;;;;;;;13.90;6.20;;;10.30;99.90;;;;;;5097845;28;20032;-57
2021/12/15 11:35:58;;;;;;;15.43;6.72;;;10.30;99.90;;;;;;5096938;28;20085;-57
2021/12/15 11:38:47;;;;;;;17.08;7.10;;;10.20;99.90;;;;;;5097597;28;20058;-58
2021/12/15 11:41:19;;;;;;;15.30;7.20;;;10.20;99.90;;;;;;5099390;28;20094;-58
2021/12/15 11:43:57;;;;;;;15.90;6.88;;;10.30;99.90;;;;;;5099518;28;20052;-58
2021/12/15 11:46:32;;;;;;;15.75;6.43;;;10.30;99.90;;;;;;5101673;28;20048;-59
2021/12/15 11:49:01;;;;;;;15.40;6.93;;;10.30;99.90;;;;;;5101464;28;20101;-59
2021/12/15 11:51:47;;;;;;;17.15;6.57;;;10.30;99.90;;;;;;5089531;28;20044;-58
2021/12/15 11:54:23;;;;;;;11.40;6.47;;;10.30;99.90;;;;;;5080803;28;20564;-59
2021/12/15 11:56:53;;;;;;;17.70;6.85;;;10.30;99.90;;;;;;5080752;28;20409;-59
2021/12/15 11:59:26;;;;;;;15.93;6.40;;;10.30;99.90;;;;;;5080487;28;20040;-59
2021/12/15 12:02:03;;;;;;;12.38;5.90;;;10.30;99.90;;;;;;5063588;28;20588;-59
2021/12/15 12:04:31;;;;;;;13.43;5.65;;;10.30;99.90;;;;;;5078961;28;20451;-59
2021/12/15 12:07:11;;;;;;;16.70;6.57;;;10.30;99.90;;;;;;5080736;28;20075;-59
2021/12/15 12:09:39;;;;;;;15.70;6.00;;;10.30;99.90;;;;;;5080375;28;20950;-58
2021/12/15 12:12:06;;;;;;;13.73;6.05;;;10.30;99.90;;;;;;5080127;28;20059;-58
2021/12/15 12:14:48;;;;;;;13.07;5.70;;;10.30;99.90;;;;;;5080727;28;20044;-58
2021/12/15 12:17:18;;;;;;;19.63;5.45;;;10.30;99.90;;;;;;5078944;28;20047;-57
2021/12/15 12:19:50;;;;;;;14.45;5.35;;;10.30;99.90;;;;;;5080497;28;20036;-58
2021/12/15 12:22:17;;;;;;;11.55;5.25;;;10.30;99.90;;;;;;5079741;28;20060;-58
2021/12/15 12:24:46;;;;;;;12.77;4.38;;;10.30;99.90;;;;;;5080405;28;20067;-58
2021/12/15 12:27:13;;;;;;;11.90;3.78;;;10.30;99.90;;;;;;5078958;28;20567;-58
2021/12/15 12:29:39;;;;;;;10.15;3.47;;;10.30;99.90;;;;;;5078487;28;20105;-58
2021/12/15 12:32:05;;;;;;;10.50;3.92;;;10.20;99.90;;;;;;5080565;28;20048;-58
2021/12/15 12:34:31;;;;;;;10.57;4.35;;;10.20;99.90;;;;;;5079504;28;20052;-60
2021/12/15 12:36:58;;;;;;;11.65;3.70;;;10.20;99.90;;;;;;5062132;28;20048;-58
2021/12/15 12:39:32;;;;;;;11.35;3.10;;;10.20;99.90;;;;;;5079379;28;20055;-58
2021/12/15 12:41:58;;;;;;;9.48;3.30;;;10.20;99.90;;;;;;5061915;28;20095;-58
2021/12/15 12:44:32;;;;;;;9.68;3.10;;;10.20;99.90;;;;;;5078883;28;20100;-57
2021/12/15 12:47:02;;;;;;;9.18;2.88;;;10.20;99.90;;;;;;5077937;28;20507;-58
2021/12/15 12:50:12;;;;;;;9.48;3.20;;;10.10;99.90;;;;;;5078547;28;20410;-58
2021/12/15 13:01:11;;;;;;;5.90;1.98;;;10.00;99.90;;;;;;5059263;28;20437;-58
2021/12/15 13:03:59;;;;;;;10.77;2.40;;;9.90;99.90;;;;;;5059335;28;20603;-59
2021/12/15 13:06:27;;;;;;;10.07;2.38;;;10.00;99.90;;;;;;5059049;28;20057;-57
2021/12/15 13:09:03;;;;;;;11.10;2.88;;;10.00;99.90;;;;;;5059146;28;20044;-57
2021/12/15 13:11:35;;;;;;;7.25;2.55;;;10.00;99.90;;;;;;5059426;28;20049;-58
2021/12/15 13:14:08;;;;;;;8.45;2.28;;;10.00;99.90;;;;;;5059195;28;20045;-58
2021/12/15 13:16:34;;;;;;;7.53;2.63;;;10.00;99.90;;;;;;5057452;28;20471;-58
2021/12/15 13:19:12;;;;;;;5.93;2.00;;;10.00;99.90;;;;;;5058243;28;20037;-59
2021/12/15 13:30:52;;;;;;;7.68;2.10;;;10.00;99.90;;;;;;5056974;28;20452;-58
2021/12/15 13:33:43;;;;;;;6.43;1.90;;;10.00;99.90;;;;;;5057460;28;20104;-58
2021/12/15 13:36:11;;;;;;;7.18;2.13;;;9.90;99.90;;;;;;5059022;28;20097;-58
2021/12/15 13:38:39;;;;;;;5.53;1.80;;;9.90;99.90;;;;;;5058246;28;20056;-59
2021/12/15 13:41:59;;;;;;;7.15;2.15;;;9.90;99.90;;;;;;5058596;28;20049;-58
2021/12/15 13:44:33;;;;;;;8.05;2.30;;;9.90;99.90;;;;;;5057927;28;20055;-58
2021/12/15 13:47:09;;;;;;;7.25;2.20;;;9.80;99.90;;;;;;5058277;28;20045;-58
2021/12/15 13:49:51;;;;;;;8.25;2.45;;;9.70;99.90;;;;;;5057118;28;20626;-57
2021/12/15 13:52:36;;;;;;;5.72;2.00;;;9.70;99.90;;;;;;5094860;28;20130;-58
2021/12/15 13:55:13;;;;;;;11.40;2.30;;;9.70;99.90;;;;;;5098473;28;20060;-59
2021/12/15 13:57:53;;;;;;;6.60;1.85;;;9.60;99.90;;;;;;5099235;28;20040;-59
2021/12/15 14:00:27;;;;;;;5.78;1.83;;;9.60;99.90;;;;;;5098098;28;20048;-60
2021/12/15 14:03:02;;;;;;;4.85;1.42;;;9.50;99.90;;;;;;5097283;28;20040;-59
2021/12/15 14:05:29;;;;;;;6.18;1.70;;;9.40;99.90;;;;;;5097144;28;20051;-59
2021/12/15 14:08:04;;;;;;;7.38;1.83;;;9.30;99.90;;;;;;5098602;28;20384;-61
2021/12/15 14:10:33;;;;;;;8.43;1.90;;;9.20;99.90;;;;;;5098910;28;20040;-59
2021/12/15 14:13:05;;;;;;;7.78;1.92;;;9.20;99.90;;;;;;5098145;28;20089;-59
2021/12/15 14:15:37;;;;;;;8.65;2.28;;;9.00;99.90;;;;;;5098431;28;20059;-59
2021/12/15 14:18:21;;;;;;;7.35;1.80;;;9.00;99.90;;;;;;5098105;28;20085;-57
2021/12/15 14:21:14;;;;;;;8.77;1.95;;;9.00;99.90;;;;;;5098266;28;20047;-57
2021/12/15 14:23:47;;;;;;;9.13;2.13;;;9.00;99.90;;;;;;5098741;28;20110;-57
2021/12/15 14:26:17;;;;;;;6.70;2.22;;;9.00;99.90;;;;;;5097807;28;20055;-57
2021/12/15 14:28:47;;;;;;;6.75;2.17;;;9.00;99.90;;;;;;5098532;28;20043;-57
2021/12/15 14:31:20;;;;;;;7.03;2.00;;;9.10;99.90;;;;;;5097171;28;20435;-57
2021/12/15 14:33:50;;;;;;;7.43;2.00;;;9.10;99.90;;;;;;5098100;28;20047;-57
2021/12/15 14:36:31;;;;;;;7.22;1.95;;;9.20;99.90;;;;;;5098470;28;20040;-58
2021/12/15 14:39:06;;;;;;;6.70;1.90;;;9.20;99.90;;;;;;5098080;28;20051;-58